Geronimo — PD6553 — position and weather

sailwx.info

Track history (hours):
 
Tides and Currents Weather Stations Pressure Air Temp Water Temp Dewpoint Dewpoint Depression Visibility Wind Speed Wind Dir Waves Ship Positions

Geronimo

Last reported at 2018-Jul-19 15:12 UTC. Time now 2018-Jul-20 04:30 UTC.
Position N 38°15' E 015°43'.

Length 20 m; draft 2.9 m.

Type: Sailing vessel. MMSI: 244620501.

Date/timePositionNaut miles runAvg speedWind from/ knotsBaromVisibWave heightAir tempDewpointWater temp
2018-Jul-19 15:12N 38°15' E 015°43'0 0.5
2018-Jul-19 14:57N 38°15' E 015°43'5 7.5
2018-Jul-19 14:15N 38°18' E 015°37'6 7.5
2018-Jul-19 13:31N 38°19' E 015°30'4 7.8
2018-Jul-19 13:00N 38°20' E 015°25'4 8.7
2018-Jul-19 12:30N 38°21' E 015°20'4 8.2
2018-Jul-19 12:00N 38°21' E 015°14'4 7.2
2018-Jul-19 11:29N 38°22' E 015°10'4 7.4
2018-Jul-19 10:58N 38°23' E 015°05'  
2018-Jul-16 15:33N 38°34' E 014°28'34 0.7
2018-Jul-14 11:36N 38°45' E 015°09'  
2018-Jul-11 12:19N 40°36' E 014°32'2 6.8
2018-Jul-11 12:00N 40°37' E 014°30'3 5.7
2018-Jul-11 11:30N 40°36' E 014°26'4 7.5
2018-Jul-11 11:00N 40°34' E 014°22'5 7.4
2018-Jul-11 10:21N 40°32' E 014°16'1 1.6
2018-Jul-11 09:44N 40°33' E 014°15'0 0.0
2018-Jul-11 09:21N 40°33' E 014°15'0 0.0
2018-Jul-11 09:00N 40°33' E 014°15'0 0.0
2018-Jul-11 08:30N 40°33' E 014°15'0 0.0
2018-Jul-11 08:00N 40°33' E 014°15'0 0.0
2018-Jul-11 07:30N 40°33' E 014°15'0 0.0
2018-Jul-11 07:00N 40°33' E 014°15'0 0.0
2018-Jul-11 06:26N 40°33' E 014°15'0 0.0
2018-Jul-11 04:29N 40°33' E 014°15'0 0.0
2018-Jul-11 03:13N 40°33' E 014°15'0 0.0
2018-Jul-11 02:46N 40°33' E 014°15'0 0.0
2018-Jul-11 02:27N 40°33' E 014°15'0 0.0
2018-Jul-11 01:59N 40°33' E 014°15'0 0.0
2018-Jul-11 01:26N 40°33' E 014°15'0 0.0
2018-Jul-11 00:57N 40°33' E 014°15'0 0.0
2018-Jul-11 00:29N 40°33' E 014°15'0 0.0
2018-Jul-11 00:00N 40°33' E 014°15'0 0.0
2018-Jul-10 23:30N 40°33' E 014°15'0 0.0
2018-Jul-10 23:00N 40°33' E 014°15'0 0.0
2018-Jul-10 22:28N 40°33' E 014°15'0 0.0
2018-Jul-10 21:56N 40°33' E 014°15'0 0.0
2018-Jul-10 21:29N 40°33' E 014°15'0 0.0
2018-Jul-10 18:01N 40°33' E 014°15'0 2.2
2018-Jul-10 18:00N 40°33' E 014°15'0 0.0
2018-Jul-10 17:30N 40°33' E 014°15'0 0.0
2018-Jul-10 16:59N 40°33' E 014°15'0 0.0
2018-Jul-10 16:30N 40°33' E 014°15'0 0.0
2018-Jul-10 16:00N 40°33' E 014°15'0 0.0
2018-Jul-10 15:30N 40°33' E 014°15'0 0.0
2018-Jul-10 15:00N 40°33' E 014°15'0 0.0
2018-Jul-10 14:30N 40°33' E 014°15'0 0.0
2018-Jul-10 13:59N 40°33' E 014°15'1 3.1
2018-Jul-10 13:30N 40°32' E 014°13'2 3.6
2018-Jul-10 13:00N 40°34' E 014°12'0 0.5
2018-Jul-10 12:30N 40°34' E 014°12'0 0.2
2018-Jul-10 11:58N 40°34' E 014°12'0 0.2
2018-Jul-10 11:30N 40°34' E 014°12'3 6.1
2018-Jul-10 11:00N 40°35' E 014°09'4 7.2
2018-Jul-10 10:30N 40°37' E 014°05'4 7.1
2018-Jul-10 10:00N 40°39' E 014°01'4 6.9
2018-Jul-10 09:30N 40°40' E 013°57'3 4.8
2018-Jul-10 08:58N 40°42' E 013°54'0 0.0
2018-Jul-10 08:30N 40°42' E 013°54'0 0.0
2018-Jul-10 08:00N 40°42' E 013°54'0 0.0
2018-Jul-10 07:30N 40°42' E 013°54'0 0.0
2018-Jul-10 06:57N 40°42' E 013°54'0 0.0
2018-Jul-10 06:30N 40°42' E 013°54'0 0.0
2018-Jul-10 05:58N 40°42' E 013°54'0 0.0
2018-Jul-10 05:29N 40°42' E 013°54'0 0.0
2018-Jul-10 05:00N 40°42' E 013°54'0 0.0
2018-Jul-10 04:30N 40°42' E 013°54'0 0.0
2018-Jul-10 04:00N 40°42' E 013°54'0 0.0
2018-Jul-10 03:30N 40°42' E 013°54'0 0.0
2018-Jul-10 03:00N 40°42' E 013°54'0 0.0
2018-Jul-10 02:30N 40°42' E 013°54'0 0.0
2018-Jul-10 02:00N 40°42' E 013°54'0 0.0
2018-Jul-10 01:30N 40°42' E 013°54'0 0.0
2018-Jul-10 01:00N 40°42' E 013°54'0 0.0
2018-Jul-10 00:30N 40°42' E 013°54'0 0.0
2018-Jul-09 23:58N 40°42' E 013°54'0 0.0
2018-Jul-09 23:31N 40°42' E 013°54'0 0.0
2018-Jul-09 23:00N 40°42' E 013°54'0 0.0
2018-Jul-09 22:30N 40°42' E 013°54'0 0.0
2018-Jul-09 22:00N 40°42' E 013°54'0 0.0
2018-Jul-09 21:30N 40°42' E 013°54'0 0.0
2018-Jul-09 21:00N 40°42' E 013°54'0 0.0
2018-Jul-09 20:30N 40°42' E 013°54'0 0.0
2018-Jul-09 20:00N 40°42' E 013°54'0 0.0
2018-Jul-09 19:30N 40°42' E 013°54'0 0.0
2018-Jul-09 19:00N 40°42' E 013°54'0 0.0
2018-Jul-09 18:30N 40°42' E 013°54'0 0.0
2018-Jul-09 18:00N 40°42' E 013°54'0 0.0
2018-Jul-09 17:30N 40°42' E 013°54'0 0.0
2018-Jul-09 17:00N 40°42' E 013°54'0 0.0
2018-Jul-09 16:30N 40°42' E 013°54'0 0.0
2018-Jul-09 16:00N 40°42' E 013°54'0 0.0
2018-Jul-09 15:30N 40°42' E 013°54'  
Track history (hours):
 
Tides and Currents Weather Stations Pressure Air Temp Water Temp Dewpoint Dewpoint Depression Visibility Wind Speed Wind Dir Waves Ship Positions

Geronimo

Last reported at 2018-Jul-19 15:12 UTC. Time now 2018-Jul-20 04:30 UTC.
Position N 38°15' E 015°43'.

Length 20 m; draft 2.9 m.

Type: Sailing vessel. MMSI: 244620501.

Date/timePositionNaut miles runAvg speedWind from/ knotsBaromVisibWave heightAir tempDewpointWater temp
2018-Jul-19 15:12N 38°15' E 015°43'0 0.5
2018-Jul-19 14:57N 38°15' E 015°43'5 7.5
2018-Jul-19 14:15N 38°18' E 015°37'6 7.5
2018-Jul-19 13:31N 38°19' E 015°30'4 7.8
2018-Jul-19 13:00N 38°20' E 015°25'4 8.7
2018-Jul-19 12:30N 38°21' E 015°20'4 8.2
2018-Jul-19 12:00N 38°21' E 015°14'4 7.2
2018-Jul-19 11:29N 38°22' E 015°10'4 7.4
2018-Jul-19 10:58N 38°23' E 015°05'  
2018-Jul-16 15:33N 38°34' E 014°28'34 0.7
2018-Jul-14 11:36N 38°45' E 015°09'  
2018-Jul-11 12:19N 40°36' E 014°32'2 6.8
2018-Jul-11 12:00N 40°37' E 014°30'3 5.7
2018-Jul-11 11:30N 40°36' E 014°26'4 7.5
2018-Jul-11 11:00N 40°34' E 014°22'5 7.4
2018-Jul-11 10:21N 40°32' E 014°16'1 1.6
2018-Jul-11 09:44N 40°33' E 014°15'0 0.0
2018-Jul-11 09:21N 40°33' E 014°15'0 0.0
2018-Jul-11 09:00N 40°33' E 014°15'0 0.0
2018-Jul-11 08:30N 40°33' E 014°15'0 0.0
2018-Jul-11 08:00N 40°33' E 014°15'0 0.0
2018-Jul-11 07:30N 40°33' E 014°15'0 0.0
2018-Jul-11 07:00N 40°33' E 014°15'0 0.0
2018-Jul-11 06:26N 40°33' E 014°15'0 0.0
2018-Jul-11 04:29N 40°33' E 014°15'0 0.0
2018-Jul-11 03:13N 40°33' E 014°15'0 0.0
2018-Jul-11 02:46N 40°33' E 014°15'0 0.0
2018-Jul-11 02:27N 40°33' E 014°15'0 0.0
2018-Jul-11 01:59N 40°33' E 014°15'0 0.0
2018-Jul-11 01:26N 40°33' E 014°15'0 0.0
2018-Jul-11 00:57N 40°33' E 014°15'0 0.0
2018-Jul-11 00:29N 40°33' E 014°15'0 0.0
2018-Jul-11 00:00N 40°33' E 014°15'0 0.0
2018-Jul-10 23:30N 40°33' E 014°15'0 0.0
2018-Jul-10 23:00N 40°33' E 014°15'0 0.0
2018-Jul-10 22:28N 40°33' E 014°15'0 0.0
2018-Jul-10 21:56N 40°33' E 014°15'0 0.0
2018-Jul-10 21:29N 40°33' E 014°15'0 0.0
2018-Jul-10 18:01N 40°33' E 014°15'0 2.2
2018-Jul-10 18:00N 40°33' E 014°15'0 0.0
2018-Jul-10 17:30N 40°33' E 014°15'0 0.0
2018-Jul-10 16:59N 40°33' E 014°15'0 0.0
2018-Jul-10 16:30N 40°33' E 014°15'0 0.0
2018-Jul-10 16:00N 40°33' E 014°15'0 0.0
2018-Jul-10 15:30N 40°33' E 014°15'0 0.0
2018-Jul-10 15:00N 40°33' E 014°15'0 0.0
2018-Jul-10 14:30N 40°33' E 014°15'0 0.0
2018-Jul-10 13:59N 40°33' E 014°15'1 3.1
2018-Jul-10 13:30N 40°32' E 014°13'2 3.6
2018-Jul-10 13:00N 40°34' E 014°12'0 0.5
2018-Jul-10 12:30N 40°34' E 014°12'0 0.2
2018-Jul-10 11:58N 40°34' E 014°12'0 0.2
2018-Jul-10 11:30N 40°34' E 014°12'3 6.1
2018-Jul-10 11:00N 40°35' E 014°09'4 7.2
2018-Jul-10 10:30N 40°37' E 014°05'4 7.1
2018-Jul-10 10:00N 40°39' E 014°01'4 6.9
2018-Jul-10 09:30N 40°40' E 013°57'3 4.8
2018-Jul-10 08:58N 40°42' E 013°54'0 0.0
2018-Jul-10 08:30N 40°42' E 013°54'0 0.0
2018-Jul-10 08:00N 40°42' E 013°54'0 0.0
2018-Jul-10 07:30N 40°42' E 013°54'0 0.0
2018-Jul-10 06:57N 40°42' E 013°54'0 0.0
2018-Jul-10 06:30N 40°42' E 013°54'0 0.0
2018-Jul-10 05:58N 40°42' E 013°54'0 0.0
2018-Jul-10 05:29N 40°42' E 013°54'0 0.0
2018-Jul-10 05:00N 40°42' E 013°54'0 0.0
2018-Jul-10 04:30N 40°42' E 013°54'0 0.0
2018-Jul-10 04:00N 40°42' E 013°54'0 0.0
2018-Jul-10 03:30N 40°42' E 013°54'0 0.0
2018-Jul-10 03:00N 40°42' E 013°54'0 0.0
2018-Jul-10 02:30N 40°42' E 013°54'0 0.0
2018-Jul-10 02:00N 40°42' E 013°54'0 0.0
2018-Jul-10 01:30N 40°42' E 013°54'0 0.0
2018-Jul-10 01:00N 40°42' E 013°54'0 0.0
2018-Jul-10 00:30N 40°42' E 013°54'0 0.0
2018-Jul-09 23:58N 40°42' E 013°54'0 0.0
2018-Jul-09 23:31N 40°42' E 013°54'0 0.0
2018-Jul-09 23:00N 40°42' E 013°54'0 0.0
2018-Jul-09 22:30N 40°42' E 013°54'0 0.0
2018-Jul-09 22:00N 40°42' E 013°54'0 0.0
2018-Jul-09 21:30N 40°42' E 013°54'0 0.0
2018-Jul-09 21:00N 40°42' E 013°54'0 0.0
2018-Jul-09 20:30N 40°42' E 013°54'0 0.0
2018-Jul-09 20:00N 40°42' E 013°54'0 0.0
2018-Jul-09 19:30N 40°42' E 013°54'0 0.0
2018-Jul-09 19:00N 40°42' E 013°54'0 0.0
2018-Jul-09 18:30N 40°42' E 013°54'0 0.0
2018-Jul-09 18:00N 40°42' E 013°54'0 0.0
2018-Jul-09 17:30N 40°42' E 013°54'0 0.0
2018-Jul-09 17:00N 40°42' E 013°54'0 0.0
2018-Jul-09 16:30N 40°42' E 013°54'0 0.0
2018-Jul-09 16:00N 40°42' E 013°54'0 0.0
2018-Jul-09 15:30N 40°42' E 013°54'  

Dump ship's entire track history